createdAt,value
2022-12-11T00:02:05.813Z,101216.56
2022-12-11T00:04:32.714Z,101219.94
2022-12-11T00:06:59.279Z,101217.38
2022-12-11T00:09:26.100Z,101210.50
2022-12-11T00:11:52.648Z,101213.91
2022-12-11T00:14:19.545Z,101216.50
2022-12-11T00:16:48.248Z,101218.22
2022-12-11T00:19:15.173Z,101227.63
2022-12-11T00:21:42.400Z,101213.91
2022-12-11T00:24:08.980Z,101220.75
2022-12-11T00:26:35.511Z,101215.56
2022-12-11T00:29:02.050Z,101218.16
2022-12-11T00:31:28.639Z,101217.31
2022-12-11T00:33:55.712Z,101218.19
2022-12-11T00:36:25.055Z,101223.28
2022-12-11T00:38:53.021Z,101222.44
2022-12-11T00:41:19.851Z,101219.03
2022-12-11T00:43:46.919Z,101215.56
2022-12-11T00:46:13.728Z,101212.16
2022-12-11T00:48:40.202Z,101203.59
2022-12-11T00:51:06.851Z,101208.72
2022-12-11T00:53:33.331Z,101201.00
2022-12-11T00:55:59.801Z,101201.81
2022-12-11T00:58:26.288Z,101196.66
2022-12-11T01:00:53.803Z,101195.78
2022-12-11T01:03:20.399Z,101194.09
2022-12-11T01:05:54.730Z,101194.09
2022-12-11T01:08:21.705Z,101194.94
2022-12-11T01:10:48.405Z,101188.03
2022-12-11T01:13:15.324Z,101192.31
2022-12-11T01:15:44.491Z,101188.88
2022-12-11T01:18:15.741Z,101191.44
2022-12-11T01:20:42.756Z,101194.00
2022-12-11T01:23:13.214Z,101195.69
2022-12-11T01:25:41.036Z,101198.31
2022-12-11T01:28:07.674Z,101196.63
2022-12-11T01:30:34.348Z,101200.03
2022-12-11T01:33:01.162Z,101200.03
2022-12-11T01:35:28.223Z,101199.16
2022-12-11T01:37:54.991Z,101196.59
2022-12-11T01:40:22.807Z,101201.72
2022-12-11T01:42:49.294Z,101201.72
2022-12-11T01:45:21.617Z,101200.88
2022-12-11T01:47:53.690Z,101204.34
2022-12-11T01:50:20.400Z,101209.50
2022-12-11T01:52:49.349Z,101207.78
2022-12-11T01:55:18.282Z,101208.66
2022-12-11T01:57:48.940Z,101203.47
2022-12-11T02:00:16.011Z,101203.47
2022-12-11T02:02:42.537Z,101192.31
2022-12-11T02:05:09.767Z,101198.31
2022-12-11T02:07:57.297Z,101186.28
2022-12-11T02:10:43.347Z,101186.28
2022-12-11T02:13:18.325Z,101190.56
2022-12-11T02:16:11.978Z,101180.25
2022-12-11T02:18:47.681Z,101181.09
2022-12-11T02:21:24.877Z,101175.94
2022-12-11T02:24:17.559Z,101181.91
2022-12-11T02:26:59.949Z,101172.44
2022-12-11T02:29:33.742Z,101175.88
2022-12-11T02:32:07.750Z,101170.72
2022-12-11T02:34:37.331Z,101166.41
2022-12-11T02:37:10.813Z,101164.72
2022-12-11T02:39:41.197Z,101164.69
2022-12-11T02:42:09.594Z,101158.66
2022-12-11T02:44:37.912Z,101162.94
2022-12-11T02:47:08.291Z,101163.78
2022-12-11T02:49:35.471Z,101155.22
2022-12-11T02:52:05.237Z,101167.22
2022-12-11T02:54:35.854Z,101160.31
2022-12-11T02:57:33.346Z,101163.72
2022-12-11T02:59:59.922Z,101160.25
2022-12-11T03:02:26.656Z,101166.28
2022-12-11T03:04:54.025Z,101161.97
2022-12-11T03:07:28.726Z,101166.28
2022-12-11T03:09:55.526Z,101160.19
2022-12-11T03:12:33.167Z,101162.78
2022-12-11T03:15:02.039Z,101161.88
2022-12-11T03:17:38.526Z,101155.00
2022-12-11T03:20:24.834Z,101164.47
2022-12-11T03:23:16.442Z,101167.03
2022-12-11T03:26:12.156Z,101167.03
2022-12-11T03:28:56.033Z,101169.59
2022-12-11T03:31:30.718Z,101166.16
2022-12-11T03:34:03.638Z,101163.53
2022-12-11T03:36:36.467Z,101168.72
2022-12-11T03:39:09.593Z,101166.16
2022-12-11T03:41:39.751Z,101169.56
2022-12-11T03:44:08.775Z,101167.03
2022-12-11T03:46:39.430Z,101168.72
2022-12-11T03:49:11.900Z,101170.41
2022-12-11T03:51:42.254Z,101178.97
2022-12-11T03:54:11.143Z,101160.09
2022-12-11T03:56:40.768Z,101156.72
2022-12-11T03:59:07.158Z,101156.72
2022-12-11T04:01:33.777Z,101156.72
2022-12-11T04:04:00.334Z,101151.56
2022-12-11T04:06:27.391Z,101155.84
2022-12-11T04:08:54.660Z,101158.44
2022-12-11T04:11:36.361Z,101161.88
2022-12-11T04:14:26.414Z,101154.16
2022-12-11T04:16:53.401Z,101156.72
2022-12-11T04:19:39.891Z,101157.59
2022-12-11T04:22:26.354Z,101150.75
2022-12-11T04:24:52.872Z,101151.63
2022-12-11T04:27:39.444Z,101149.91
2022-12-11T04:30:10.554Z,101137.03
2022-12-11T04:32:37.294Z,101143.00
2022-12-11T04:35:04.211Z,101134.44
2022-12-11T04:37:30.829Z,101134.47
2022-12-11T04:39:57.233Z,101137.91
2022-12-11T04:42:23.723Z,101142.16
2022-12-11T04:44:50.243Z,101135.34
2022-12-11T04:47:16.983Z,101132.75
2022-12-11T04:49:43.531Z,101131.88
2022-12-11T04:52:15.479Z,101131.03
2022-12-11T04:54:42.096Z,101124.16
2022-12-11T04:57:08.534Z,101131.03
2022-12-11T04:59:35.218Z,101120.78
2022-12-11T05:02:01.790Z,101126.78
2022-12-11T05:04:33.240Z,101127.66
2022-12-11T05:07:00.022Z,101135.34
2022-12-11T05:09:27.948Z,101137.88
2022-12-11T05:11:57.147Z,101139.56
2022-12-11T05:14:23.717Z,101143.88
2022-12-11T05:16:51.187Z,101143.00
2022-12-11T05:19:18.839Z,101149.00
2022-12-11T05:21:45.408Z,101143.84
2022-12-11T05:24:11.936Z,101136.97
2022-12-11T05:26:38.480Z,101139.56
2022-12-11T05:29:05.094Z,101137.91
2022-12-11T05:31:37.027Z,101138.75
2022-12-11T05:34:04.071Z,101130.22
2022-12-11T05:36:34.390Z,101126.78
2022-12-11T05:39:02.361Z,101127.66
2022-12-11T05:41:30.543Z,101124.22
2022-12-11T05:43:57.383Z,101123.34
2022-12-11T05:46:29.247Z,101124.22
2022-12-11T05:48:58.426Z,101126.78
2022-12-11T05:51:25.970Z,101125.06
2022-12-11T05:53:54.144Z,101127.63
2022-12-11T05:56:32.392Z,101120.78
2022-12-11T05:59:01.040Z,101129.34
2022-12-11T06:01:38.521Z,101123.34
2022-12-11T06:04:06.911Z,101123.31
2022-12-11T06:06:34.529Z,101123.25
2022-12-11T06:09:02.205Z,101116.38
2022-12-11T06:11:30.776Z,101115.56
2022-12-11T06:13:58.603Z,101113.84
2022-12-11T06:16:25.538Z,101109.53
2022-12-11T06:18:57.872Z,101112.97
2022-12-11T06:21:28.151Z,101117.25
2022-12-11T06:24:00.888Z,101113.81
2022-12-11T06:26:28.498Z,101122.41
2022-12-11T06:28:55.441Z,101115.53
2022-12-11T06:31:22.108Z,101125.00
2022-12-11T06:33:48.743Z,101117.31
2022-12-11T06:36:18.364Z,101123.31
2022-12-11T06:38:45.879Z,101109.59
2022-12-11T06:41:13.010Z,101129.31
2022-12-11T06:43:40.417Z,101127.66
2022-12-11T06:46:09.355Z,101122.50
2022-12-11T06:48:36.442Z,101131.13
2022-12-11T06:51:19.993Z,101132.00
2022-12-11T06:53:54.485Z,101141.47
2022-12-11T06:56:22.497Z,101136.31
2022-12-11T06:58:49.632Z,101134.63
2022-12-11T07:01:25.648Z,101130.31
2022-12-11T07:03:57.298Z,101133.78
2022-12-11T07:06:25.482Z,101133.75
2022-12-11T07:08:52.196Z,101138.00
2022-12-11T07:11:20.769Z,101148.31
2022-12-11T07:13:47.715Z,101141.47
2022-12-11T07:16:15.914Z,101143.22
2022-12-11T07:18:48.313Z,101148.38
2022-12-11T07:21:14.849Z,101142.34
2022-12-11T07:23:41.939Z,101144.09
2022-12-11T07:26:11.621Z,101138.94
2022-12-11T07:28:38.965Z,101148.34
2022-12-11T07:31:11.204Z,101136.31
2022-12-11T07:33:37.913Z,101147.47
2022-12-11T07:36:07.035Z,101142.31
2022-12-11T07:38:33.978Z,101150.91
2022-12-11T07:41:02.407Z,101150.94
2022-12-11T07:43:29.053Z,101150.06
2022-12-11T07:45:55.620Z,101150.91
2022-12-11T07:48:23.261Z,101158.66
2022-12-11T07:50:50.326Z,101152.69
2022-12-11T07:53:17.475Z,101156.13
2022-12-11T07:55:44.003Z,101159.56
2022-12-11T07:58:10.548Z,101153.53
2022-12-11T08:00:37.153Z,101162.16
2022-12-11T08:03:03.814Z,101161.34
2022-12-11T08:05:30.527Z,101163.91
2022-12-11T08:07:57.817Z,101160.50
2022-12-11T08:10:26.788Z,101158.81
2022-12-11T08:12:53.689Z,101150.22
2022-12-11T08:15:21.026Z,101159.66
2022-12-11T08:17:48.622Z,101157.09
2022-12-11T08:20:15.867Z,101158.00
2022-12-11T08:22:43.901Z,101164.00
2022-12-11T08:25:20.383Z,101158.84
2022-12-11T08:27:50.518Z,101166.53
2022-12-11T08:30:17.483Z,101163.97
2022-12-11T08:32:45.246Z,101161.41
2022-12-11T08:35:11.927Z,101164.84
2022-12-11T08:37:38.869Z,101164.00
2022-12-11T08:40:06.563Z,101162.25
2022-12-11T08:42:56.184Z,101165.66
2022-12-11T08:45:22.833Z,101161.41
2022-12-11T08:47:50.759Z,101169.16
2022-12-11T08:50:17.296Z,101165.75
2022-12-11T08:52:43.807Z,101167.47
2022-12-11T08:55:12.100Z,101157.19
2022-12-11T08:57:39.784Z,101158.91
2022-12-11T09:00:10.738Z,101145.25
2022-12-11T09:02:38.234Z,101152.06
2022-12-11T09:05:19.990Z,101147.78
2022-12-11T09:07:46.541Z,101151.19
2022-12-11T09:10:14.423Z,101146.84
2022-12-11T09:12:51.830Z,101140.75
2022-12-11T09:15:18.506Z,101138.09
2022-12-11T09:17:45.043Z,101132.00
2022-12-11T09:20:12.081Z,101132.81
2022-12-11T09:22:38.612Z,101138.75
2022-12-11T09:25:10.575Z,101132.72
2022-12-11T09:27:38.459Z,101134.41
2022-12-11T09:30:05.773Z,101134.41
2022-12-11T09:32:32.432Z,101131.78
2022-12-11T09:34:59.214Z,101134.25
2022-12-11T09:37:26.667Z,101129.84
2022-12-11T09:39:53.598Z,101128.03
2022-12-11T09:42:49.236Z,101128.13
2022-12-11T09:45:16.537Z,101130.69
2022-12-11T09:47:57.004Z,101135.75
2022-12-11T09:50:28.677Z,101131.38
2022-12-11T09:53:13.062Z,101133.91
2022-12-11T09:55:49.341Z,101126.09
2022-12-11T09:58:31.732Z,101128.50
2022-12-11T10:01:13.222Z,101133.72
2022-12-11T10:04:02.242Z,101129.41
2022-12-11T10:06:38.387Z,101126.72
2022-12-11T10:09:33.289Z,101123.31
2022-12-11T10:12:12.510Z,101121.47
2022-12-11T10:14:45.344Z,101123.97
2022-12-11T10:17:29.024Z,101123.13
2022-12-11T10:20:00.366Z,101126.47
2022-12-11T10:22:29.910Z,101125.53
2022-12-11T10:25:11.535Z,101124.59
2022-12-11T10:27:40.418Z,101117.72
2022-12-11T10:30:13.146Z,101115.09
2022-12-11T10:32:50.570Z,101113.31
2022-12-11T10:35:26.981Z,101116.75
2022-12-11T10:38:01.538Z,101117.78
2022-12-11T10:40:34.209Z,101117.81
2022-12-11T10:43:00.690Z,101113.47
2022-12-11T10:45:27.513Z,101113.53
2022-12-11T10:48:12.056Z,101112.72
2022-12-11T10:50:39.563Z,101113.63
2022-12-11T10:53:06.464Z,101105.84
2022-12-11T10:56:00.144Z,101099.84
2022-12-11T10:58:33.801Z,101105.66
2022-12-11T11:01:15.572Z,101103.88
2022-12-11T11:04:16.422Z,101102.81
2022-12-11T11:06:46.380Z,101105.38
2022-12-11T11:09:36.807Z,101095.97
2022-12-11T11:12:07.816Z,101103.72
2022-12-11T11:14:34.934Z,101103.56
2022-12-11T11:17:01.555Z,101094.91
2022-12-11T11:19:34.956Z,101097.56
2022-12-11T11:22:17.746Z,101088.06
2022-12-11T11:24:51.936Z,101082.97
2022-12-11T11:27:41.721Z,101077.81
2022-12-11T11:30:23.286Z,101086.38
2022-12-11T11:32:56.041Z,101085.41
2022-12-11T11:35:27.787Z,101080.88
2022-12-11T11:38:09.443Z,101079.13
2022-12-11T11:40:47.613Z,101076.66
2022-12-11T11:43:46.615Z,101080.97
2022-12-11T11:46:27.991Z,101074.09
2022-12-11T11:49:13.902Z,101075.69
2022-12-11T11:51:51.937Z,101073.97
2022-12-11T11:54:36.923Z,101071.19
2022-12-11T11:57:15.432Z,101061.66
2022-12-11T11:59:49.352Z,101062.59
2022-12-11T12:02:20.360Z,101056.63
2022-12-11T12:04:49.310Z,101067.78
2022-12-11T12:07:22.127Z,101063.66
2022-12-11T12:10:06.830Z,101060.34
2022-12-11T12:13:03.239Z,101065.56
2022-12-11T12:15:39.425Z,101062.16
2022-12-11T12:18:26.241Z,101057.88
2022-12-11T12:21:00.372Z,101053.44
2022-12-11T12:23:49.561Z,101058.69
2022-12-11T12:26:35.404Z,101048.44
2022-12-11T12:29:39.979Z,101056.94
2022-12-11T12:32:31.889Z,101055.25
2022-12-11T12:35:09.006Z,101051.75
2022-12-11T12:37:45.780Z,101046.59
2022-12-11T12:40:42.485Z,101052.69
2022-12-11T12:43:17.881Z,101051.78
2022-12-11T12:46:06.168Z,101049.13
2022-12-11T12:48:32.818Z,101049.91
2022-12-11T12:50:59.886Z,101046.41
2022-12-11T12:53:34.749Z,101045.72
2022-12-11T12:56:03.527Z,101050.94
2022-12-11T12:58:36.051Z,101041.59
2022-12-11T13:01:15.076Z,101038.13
2022-12-11T13:04:01.726Z,101045.06
2022-12-11T13:06:38.466Z,101048.44
2022-12-11T13:09:23.519Z,101039.97
2022-12-11T13:11:58.070Z,101048.59
2022-12-11T13:14:32.557Z,101053.75
2022-12-11T13:17:26.339Z,101051.00
2022-12-11T13:20:13.876Z,101057.88
2022-12-11T13:23:00.249Z,101055.38
2022-12-11T13:25:32.100Z,101059.69
2022-12-11T13:28:19.589Z,101051.97
2022-12-11T13:30:57.784Z,101054.53
2022-12-11T13:33:25.590Z,101054.47
2022-12-11T13:36:18.999Z,101055.38
2022-12-11T13:38:54.013Z,101059.63
2022-12-11T13:41:20.853Z,101063.00
2022-12-11T13:43:49.485Z,101064.69
2022-12-11T13:46:23.158Z,101061.31
2022-12-11T13:48:57.148Z,101061.38
2022-12-11T13:51:25.848Z,101063.16
2022-12-11T13:54:16.517Z,101058.91
2022-12-11T13:57:15.055Z,101064.91
2022-12-11T13:59:43.741Z,101060.59
2022-12-11T14:02:19.421Z,101064.06
2022-12-11T14:04:52.242Z,101070.06
2022-12-11T14:07:33.535Z,101064.97
2022-12-11T14:10:11.493Z,101063.34
2022-12-11T14:12:38.650Z,101069.28
2022-12-11T14:15:06.751Z,101066.75
2022-12-11T14:17:35.354Z,101067.59
2022-12-11T14:20:08.431Z,101068.56
2022-12-11T14:22:35.166Z,101069.47
2022-12-11T14:25:19.555Z,101070.41
2022-12-11T14:27:52.639Z,101064.38
2022-12-11T14:30:51.622Z,101063.47
2022-12-11T14:33:29.095Z,101066.84
2022-12-11T14:35:56.454Z,101069.47
2022-12-11T14:38:35.642Z,101066.97
2022-12-11T14:41:15.571Z,101067.06
2022-12-11T14:43:50.604Z,101067.91
2022-12-11T14:46:24.848Z,101062.69
2022-12-11T14:49:15.963Z,101060.03
2022-12-11T14:51:42.909Z,101056.69
2022-12-11T14:54:23.175Z,101064.47
2022-12-11T14:56:49.995Z,101067.91
2022-12-11T14:59:26.894Z,101069.63
2022-12-11T15:02:02.821Z,101070.44
2022-12-11T15:04:32.253Z,101067.84
2022-12-11T15:07:00.112Z,101073.84
2022-12-11T15:09:42.757Z,101069.63
2022-12-11T15:12:27.488Z,101083.31
2022-12-11T15:15:03.046Z,101077.25
2022-12-11T15:17:30.894Z,101081.63
2022-12-11T15:20:23.420Z,101078.19
2022-12-11T15:22:50.411Z,101083.41
2022-12-11T15:25:25.924Z,101083.38
2022-12-11T15:27:55.429Z,101081.72
2022-12-11T15:30:26.531Z,101083.47
2022-12-11T15:33:11.751Z,101084.22
2022-12-11T15:35:40.280Z,101083.34
2022-12-11T15:38:07.076Z,101084.22
2022-12-11T15:43:36.185Z,101098.94
2022-12-11T15:46:04.791Z,101096.31
2022-12-11T15:48:31.421Z,101087.81
2022-12-11T15:50:58.000Z,101098.22
2022-12-11T15:53:24.659Z,101093.91
2022-12-11T15:55:52.582Z,101092.16
2022-12-11T15:58:21.508Z,101098.22
2022-12-11T16:00:48.272Z,101104.25
2022-12-11T16:03:17.723Z,101099.16
2022-12-11T16:05:44.706Z,101093.94
2022-12-11T16:08:17.395Z,101098.31
2022-12-11T16:10:45.328Z,101098.16
2022-12-11T16:13:13.226Z,101099.06
2022-12-11T16:15:43.811Z,101096.59
2022-12-11T16:18:13.216Z,101100.00
2022-12-11T16:20:41.526Z,101099.03
2022-12-11T16:23:10.251Z,101099.00
2022-12-11T16:25:39.249Z,101097.31
2022-12-11T16:28:06.948Z,101092.22
2022-12-11T16:30:35.487Z,101093.97
2022-12-11T16:33:12.092Z,101097.44
2022-12-11T16:35:39.868Z,101099.13
2022-12-11T16:38:07.694Z,101088.00
2022-12-11T16:40:36.036Z,101092.31
2022-12-11T16:43:05.060Z,101088.84
2022-12-11T16:45:32.265Z,101087.97
2022-12-11T16:47:58.946Z,101090.59
2022-12-11T16:50:25.891Z,101088.84
2022-12-11T16:52:52.430Z,101090.44
2022-12-11T16:55:22.134Z,101088.75
2022-12-11T16:57:48.613Z,101092.28
2022-12-11T17:00:15.782Z,101087.91
2022-12-11T17:02:42.349Z,101080.22
2022-12-11T17:05:09.200Z,101082.81
2022-12-11T17:07:35.714Z,101084.53
2022-12-11T17:10:03.180Z,101086.28
2022-12-11T17:12:30.388Z,101087.16
2022-12-11T17:14:57.129Z,101088.00
2022-12-11T17:17:24.262Z,101093.13
2022-12-11T17:19:50.737Z,101091.44
2022-12-11T17:22:17.248Z,101095.75
2022-12-11T17:24:43.722Z,101082.91
2022-12-11T17:27:10.211Z,101088.97
2022-12-11T17:29:36.784Z,101084.72
2022-12-11T17:32:03.386Z,101087.28
2022-12-11T17:34:36.105Z,101093.28
2022-12-11T17:37:04.980Z,101089.06
2022-12-11T17:39:31.530Z,101092.53
2022-12-11T17:41:58.006Z,101088.28
2022-12-11T17:44:26.407Z,101092.53
2022-12-11T17:46:52.998Z,101088.16
2022-12-11T17:49:19.875Z,101092.38
2022-12-11T17:51:46.446Z,101092.38
2022-12-11T17:54:13.942Z,101092.31
2022-12-11T17:56:40.699Z,101097.53
2022-12-11T17:59:07.138Z,101092.38
2022-12-11T18:01:33.984Z,101093.22
2022-12-11T18:04:03.957Z,101095.81
2022-12-11T18:06:30.794Z,101095.84
2022-12-11T18:08:58.122Z,101099.22
2022-12-11T18:11:25.421Z,101103.53
2022-12-11T18:13:53.420Z,101106.22
2022-12-11T18:16:27.205Z,101102.75
2022-12-11T18:18:54.043Z,101112.22
2022-12-11T18:21:32.531Z,101102.56
2022-12-11T18:24:00.397Z,101109.47
2022-12-11T18:26:27.266Z,101100.94
2022-12-11T18:28:54.463Z,101102.75
2022-12-11T18:31:21.895Z,101108.00
2022-12-11T18:33:48.695Z,101102.84
2022-12-11T18:36:17.255Z,101102.91
2022-12-11T18:38:44.437Z,101106.31
2022-12-11T18:41:13.143Z,101107.09
2022-12-11T18:43:42.221Z,101114.75
2022-12-11T18:46:14.705Z,101106.31
2022-12-11T18:48:48.285Z,101107.31
2022-12-11T18:51:24.953Z,101120.19
2022-12-11T18:53:55.226Z,101112.47
2022-12-11T18:56:22.419Z,101117.66
2022-12-11T18:58:51.009Z,101121.13
2022-12-11T19:01:21.406Z,101117.81
2022-12-11T19:03:48.354Z,101108.41
2022-12-11T19:06:18.165Z,101107.56
2022-12-11T19:08:45.452Z,101107.63
2022-12-11T19:11:19.683Z,101102.47
2022-12-11T19:13:46.678Z,101099.84
2022-12-11T19:16:22.705Z,101107.66
2022-12-11T19:18:50.617Z,101105.19
2022-12-11T19:21:18.501Z,101109.44
2022-12-11T19:23:46.462Z,101106.81
2022-12-11T19:26:15.624Z,101110.25
2022-12-11T19:28:42.322Z,101107.63
2022-12-11T19:31:13.746Z,101108.56
2022-12-11T19:33:42.169Z,101110.34
2022-12-11T19:36:11.567Z,101101.81
2022-12-11T19:38:39.898Z,101110.44
2022-12-11T19:41:09.027Z,101111.28
2022-12-11T19:43:41.544Z,101107.88
2022-12-11T19:46:09.134Z,101106.09
2022-12-11T19:48:41.400Z,101106.91
2022-12-11T19:51:10.540Z,101114.56
2022-12-11T19:53:37.663Z,101116.22
2022-12-11T19:56:04.847Z,101113.66
2022-12-11T19:58:32.373Z,101111.91
2022-12-11T20:00:59.561Z,101115.38
2022-12-11T20:03:27.041Z,101110.34
2022-12-11T20:06:07.166Z,101106.88
2022-12-11T20:08:44.570Z,101112.88
2022-12-11T20:11:17.580Z,101121.47
2022-12-11T20:13:45.899Z,101114.59
2022-12-11T20:16:13.355Z,101111.19
2022-12-11T20:18:39.948Z,101113.75
2022-12-11T20:21:11.559Z,101123.13
2022-12-11T20:23:38.525Z,101120.53
2022-12-11T20:26:14.605Z,101124.91
2022-12-11T20:28:41.532Z,101126.56
2022-12-11T20:31:18.081Z,101122.31
2022-12-11T20:33:46.688Z,101130.19
2022-12-11T20:36:15.094Z,101125.13
2022-12-11T20:38:41.788Z,101135.44
2022-12-11T20:41:13.751Z,101129.34
2022-12-11T20:43:41.002Z,101128.50
2022-12-11T20:46:09.755Z,101125.84
2022-12-11T20:48:37.902Z,101122.41
2022-12-11T20:51:06.453Z,101128.50
2022-12-11T20:53:35.033Z,101135.34
2022-12-11T20:56:01.953Z,101130.09
2022-12-11T20:58:28.358Z,101130.09
2022-12-11T21:00:54.954Z,101129.34
2022-12-11T21:03:21.512Z,101125.13
2022-12-11T21:05:48.077Z,101130.22
2022-12-11T21:08:14.666Z,101136.22
2022-12-11T21:10:43.336Z,101136.22
2022-12-11T21:13:10.211Z,101126.78
2022-12-11T21:15:38.786Z,101137.91
2022-12-11T21:18:06.770Z,101130.16
2022-12-11T21:20:34.086Z,101136.19
2022-12-11T21:23:00.906Z,101138.75
2022-12-11T21:25:27.642Z,101137.91
2022-12-11T21:27:54.220Z,101135.34
2022-12-11T21:30:21.189Z,101132.72
2022-12-11T21:32:47.712Z,101132.75
2022-12-11T21:35:14.540Z,101133.59
2022-12-11T21:37:41.884Z,101132.72
2022-12-11T21:40:10.191Z,101125.78
2022-12-11T21:42:36.702Z,101123.25
2022-12-11T21:47:50.588Z,101132.75
2022-12-11T21:50:18.826Z,101135.34
2022-12-11T21:52:45.364Z,101124.94
2022-12-11T21:55:12.454Z,101132.72
2022-12-11T21:57:39.415Z,101131.91
2022-12-11T22:00:06.446Z,101141.38
2022-12-11T22:02:37.439Z,101150.03
2022-12-11T22:05:07.580Z,101145.72
2022-12-11T22:07:33.986Z,101148.31
2022-12-11T22:10:00.667Z,101152.56
2022-12-11T22:12:28.543Z,101155.22
2022-12-11T22:14:55.079Z,101144.13
2022-12-11T22:17:21.804Z,101153.50
2022-12-11T22:19:48.410Z,101149.22
2022-12-11T22:22:14.876Z,101149.25
2022-12-11T22:24:41.649Z,101153.50
2022-12-11T22:27:08.195Z,101155.28
2022-12-11T22:29:35.542Z,101155.28
2022-12-11T22:32:03.224Z,101147.56
2022-12-11T22:34:30.456Z,101141.59
2022-12-11T22:36:57.100Z,101155.28
2022-12-11T22:39:24.739Z,101154.38
2022-12-11T22:41:51.452Z,101162.09
2022-12-11T22:44:31.834Z,101160.38
2022-12-11T22:46:58.592Z,101161.25
2022-12-11T22:49:25.107Z,101164.75
2022-12-11T22:51:51.586Z,101160.50
2022-12-11T22:54:18.240Z,101166.50
2022-12-11T22:56:45.221Z,101167.31
2022-12-11T22:59:11.838Z,101159.63
2022-12-11T23:01:38.359Z,101156.16
2022-12-11T23:04:05.520Z,101164.72
2022-12-11T23:06:33.422Z,101157.00
2022-12-11T23:09:01.253Z,101164.72
2022-12-11T23:11:34.885Z,101157.00
2022-12-11T23:14:02.060Z,101167.31
2022-12-11T23:16:30.265Z,101158.69
2022-12-11T23:18:58.242Z,101163.84
2022-12-11T23:21:26.409Z,101155.28
2022-12-11T23:23:53.974Z,101159.56
2022-12-11T23:26:21.499Z,101160.44
2022-12-11T23:28:48.562Z,101155.31
2022-12-11T23:31:15.623Z,101160.56
2022-12-11T23:33:42.212Z,101152.81
2022-12-11T23:36:09.213Z,101158.84
2022-12-11T23:38:36.118Z,101163.91
2022-12-11T23:41:04.644Z,101159.66
2022-12-11T23:43:31.355Z,101165.63
2022-12-11T23:45:58.721Z,101160.38
